createdAt,value
2022-09-22T00:00:14.002Z,10.65999985
2022-09-22T00:02:15.919Z,10.64000034
2022-09-22T00:03:24.440Z,10.61999989
2022-09-22T00:04:26.383Z,10.60000038
2022-09-22T00:05:28.868Z,10.59000015
2022-09-22T00:06:54.838Z,10.59000015
2022-09-22T00:07:42.555Z,10.61999989
2022-09-22T00:08:40.706Z,10.64000034
2022-09-22T00:09:40.756Z,10.64000034
2022-09-22T00:10:36.976Z,10.64999962
2022-09-22T00:11:39.112Z,10.64000034
2022-09-22T00:12:34.531Z,10.63000011
2022-09-22T00:13:34.539Z,10.60999966
2022-09-22T00:14:30.970Z,10.60000038
2022-09-22T00:15:42.178Z,10.60999966
2022-09-22T00:15:49.360Z,10.60999966
2022-09-22T00:16:59.524Z,10.61999989
2022-09-22T00:17:55.796Z,10.60999966
2022-09-22T00:18:56.321Z,10.60000038
2022-09-22T00:19:52.493Z,10.59000015
2022-09-22T00:22:00.536Z,10.55000019
2022-09-22T00:22:53.736Z,10.52999973
2022-09-22T00:23:53.439Z,10.52999973
2022-09-22T00:24:52.467Z,10.52000046
2022-09-22T00:26:51.118Z,10.52000046
2022-09-22T00:27:55.299Z,10.51000023
2022-09-22T00:28:49.574Z,10.5
2022-09-22T00:29:52.248Z,10.5
2022-09-22T00:30:47.373Z,10.52999973
2022-09-22T00:31:50.160Z,10.52000046
2022-09-22T00:32:42.610Z,10.52000046
2022-09-22T00:33:39.840Z,10.5
2022-09-22T00:34:42.345Z,10.48999977
2022-09-22T00:35:43.145Z,10.51000023
2022-09-22T00:37:41.726Z,10.47000027
2022-09-22T00:38:40.382Z,10.46000004
2022-09-22T00:39:39.207Z,10.47000027
2022-09-22T00:40:34.105Z,10.5
2022-09-22T00:41:47.369Z,10.51000023
2022-09-22T00:42:41.645Z,10.5
2022-09-22T00:43:40.467Z,10.48999977
2022-09-22T00:44:39.300Z,10.47999954
2022-09-22T00:46:26.618Z,10.56999969
2022-09-22T00:47:06.460Z,10.60999966
2022-09-22T00:48:05.451Z,10.63000011
2022-09-22T00:49:04.167Z,10.60999966
2022-09-22T00:50:02.091Z,10.59000015
2022-09-22T00:51:56.361Z,10.56999969
2022-09-22T00:52:56.193Z,10.53999996
2022-09-22T00:53:54.282Z,10.51000023
2022-09-22T00:54:55.103Z,10.48999977
2022-09-22T00:55:52.429Z,10.5
2022-09-22T00:56:52.240Z,10.48999977
2022-09-22T00:57:53.863Z,10.46000004
2022-09-22T00:58:56.379Z,10.43000031
2022-09-22T00:59:49.114Z,10.40999985
2022-09-22T01:01:55.537Z,10.42000008
2022-09-22T01:02:49.907Z,10.40999985
2022-09-22T01:03:49.518Z,10.46000004
2022-09-22T01:04:46.288Z,10.47000027
2022-09-22T01:05:46.802Z,10.48999977
2022-09-22T01:06:51.634Z,10.47000027
2022-09-22T01:07:55.306Z,10.43000031
2022-09-22T01:08:53.895Z,10.40999985
2022-09-22T01:09:48.008Z,10.39999962
2022-09-22T01:10:48.951Z,10.42000008
2022-09-22T01:11:49.134Z,10.39000034
2022-09-22T01:12:45.364Z,10.36999989
2022-09-22T01:13:44.198Z,10.35000038
2022-09-22T01:14:38.546Z,10.34000015
2022-09-22T01:15:42.044Z,10.35000038
2022-09-22T01:16:41.651Z,10.34000015
2022-09-22T01:17:36.566Z,10.32999992
2022-09-22T01:18:41.221Z,10.30000019
2022-09-22T01:19:33.742Z,10.28999996
2022-09-22T01:20:38.131Z,10.31000042
2022-09-22T01:21:30.971Z,10.30000019
2022-09-22T01:22:34.103Z,10.28999996
2022-09-22T01:23:28.485Z,10.28999996
2022-09-22T01:24:32.493Z,10.28999996
2022-09-22T01:25:30.539Z,10.28999996
2022-09-22T01:26:32.452Z,10.28999996
2022-09-22T01:27:28.757Z,10.26000023
2022-09-22T01:28:30.542Z,10.27000046
2022-09-22T01:29:26.075Z,10.28999996
2022-09-22T01:30:30.281Z,10.30000019
2022-09-22T01:32:24.271Z,10.30000019
2022-09-22T01:33:19.696Z,10.28999996
2022-09-22T01:34:22.934Z,10.26000023
2022-09-22T01:35:21.908Z,10.25
2022-09-22T01:36:24.124Z,10.23999977
2022-09-22T01:37:17.056Z,10.22999954
2022-09-22T01:38:19.786Z,10.21000004
2022-09-22T01:39:19.176Z,10.18000031
2022-09-22T01:40:23.187Z,10.18000031
2022-09-22T01:42:21.209Z,10.18999958
2022-09-22T01:44:08.461Z,10.25
2022-09-22T01:44:47.838Z,10.30000019
2022-09-22T01:45:46.162Z,10.35000038
2022-09-22T01:46:46.168Z,10.31999969
2022-09-22T01:47:41.634Z,10.28999996
2022-09-22T01:48:41.472Z,10.26000023
2022-09-22T01:49:36.767Z,10.22999954
2022-09-22T01:50:37.936Z,10.22999954
2022-09-22T01:52:32.725Z,10.21000004
2022-09-22T01:53:34.836Z,10.18999958
2022-09-22T01:54:38.508Z,10.17000008
2022-09-22T01:56:47.144Z,10.17000008
2022-09-22T01:57:41.737Z,10.14999962
2022-09-22T01:58:43.007Z,10.11999989
2022-09-22T01:59:38.451Z,10.11999989
2022-09-22T02:00:39.707Z,10.17000008
2022-09-22T02:02:38.364Z,10.22999954
2022-09-22T02:03:30.863Z,10.22999954
2022-09-22T02:04:34.305Z,10.22999954
2022-09-22T02:05:29.581Z,10.25
2022-09-22T02:06:30.913Z,10.27000046
2022-09-22T02:07:29.079Z,10.23999977
2022-09-22T02:08:27.321Z,10.22999954
2022-09-22T02:09:25.933Z,10.22999954
2022-09-22T02:10:31.070Z,10.22000027
2022-09-22T02:11:25.368Z,10.23999977
2022-09-22T02:12:27.340Z,10.22000027
2022-09-22T02:13:21.672Z,10.21000004
2022-09-22T02:14:21.156Z,10.19999981
2022-09-22T02:15:20.376Z,10.18999958
2022-09-22T02:18:01.999Z,10.22999954
2022-09-22T02:18:46.112Z,10.26000023
2022-09-22T02:19:46.176Z,10.27000046
2022-09-22T02:21:53.084Z,10.25
2022-09-22T02:22:54.687Z,10.21000004
2022-09-22T02:24:02.403Z,10.14999962
2022-09-22T02:25:04.166Z,10.13000011
2022-09-22T02:27:07.414Z,10.11999989
2022-09-22T02:28:05.529Z,10.09000015
2022-09-22T02:29:07.313Z,10.07999992
2022-09-22T02:30:06.313Z,10.06000042
2022-09-22T02:31:19.929Z,10.06999969
2022-09-22T02:31:20.684Z,10.06999969
2022-09-22T02:32:12.082Z,10.06999969
2022-09-22T02:33:08.687Z,10.10999966
2022-09-22T02:34:10.473Z,10.10999966
2022-09-22T02:35:07.579Z,10.10999966
2022-09-22T02:37:06.030Z,10.09000015
2022-09-22T02:38:11.237Z,10.06999969
2022-09-22T02:39:09.304Z,10.02999973
2022-09-22T02:40:07.727Z,10.02999973
2022-09-22T02:42:07.026Z,10.02000046
2022-09-22T02:43:11.643Z,9.989999771
2022-09-22T02:44:13.491Z,9.979999542
2022-09-22T02:45:16.054Z,9.960000038
2022-09-22T02:47:11.221Z,9.93999958
2022-09-22T02:48:14.994Z,9.930000305
2022-09-22T02:49:09.240Z,9.920000076
2022-09-22T02:50:13.774Z,9.909999847
2022-09-22T02:52:16.370Z,9.909999847
2022-09-22T02:53:20.307Z,9.880000114
2022-09-22T02:54:20.820Z,9.850000381
2022-09-22T02:55:22.896Z,9.850000381
2022-09-22T02:57:18.530Z,9.840000153
2022-09-22T02:58:19.273Z,9.81000042
2022-09-22T02:59:43.319Z,9.800000191
2022-09-22T03:00:26.345Z,9.829999924
2022-09-22T03:02:37.474Z,9.859999657
2022-09-22T03:03:33.942Z,9.840000153
2022-09-22T03:04:34.896Z,9.81000042
2022-09-22T03:05:30.485Z,9.81000042
2022-09-22T03:07:31.749Z,9.789999962
2022-09-22T03:08:32.432Z,9.770000458
2022-09-22T03:09:28.823Z,9.760000229
2022-09-22T03:10:33.379Z,9.75
2022-09-22T03:12:28.282Z,9.75
2022-09-22T03:13:23.763Z,9.739999771
2022-09-22T03:14:25.483Z,9.739999771
2022-09-22T03:15:23.828Z,9.710000038
2022-09-22T03:15:27.242Z,9.710000038
2022-09-22T03:16:24.656Z,9.75
2022-09-22T03:17:20.826Z,9.770000458
2022-09-22T03:18:20.460Z,9.75
2022-09-22T03:19:15.822Z,9.729999542
2022-09-22T03:20:19.000Z,9.720000267
2022-09-22T03:22:22.057Z,9.680000305
2022-09-22T03:23:17.642Z,9.649999619
2022-09-22T03:24:15.910Z,9.640000343
2022-09-22T03:25:18.816Z,9.640000343
2022-09-22T03:27:21.907Z,9.630000114
2022-09-22T03:28:14.938Z,9.630000114
2022-09-22T03:29:19.453Z,9.630000114
2022-09-22T03:30:18.911Z,9.619999886
2022-09-22T03:32:13.820Z,9.630000114
2022-09-22T03:33:57.345Z,9.699999809
2022-09-22T03:34:37.272Z,9.75
2022-09-22T03:35:35.426Z,9.800000191
2022-09-22T03:36:35.156Z,9.81000042
2022-09-22T03:37:33.855Z,9.770000458
2022-09-22T03:38:32.902Z,9.75
2022-09-22T03:39:29.591Z,9.729999542
2022-09-22T03:40:28.945Z,9.710000038
2022-09-22T03:41:24.329Z,9.729999542
2022-09-22T03:42:23.472Z,9.699999809
2022-09-22T03:43:19.624Z,9.680000305
2022-09-22T03:44:18.073Z,9.659999847
2022-09-22T03:45:26.960Z,9.649999619
2022-09-22T03:47:29.006Z,9.630000114
2022-09-22T03:48:32.096Z,9.619999886
2022-09-22T03:49:27.405Z,9.619999886
2022-09-22T03:50:30.749Z,9.619999886
2022-09-22T03:51:23.691Z,9.649999619
2022-09-22T03:52:25.413Z,9.649999619
2022-09-22T03:53:18.697Z,9.659999847
2022-09-22T03:54:21.129Z,9.670000076
2022-09-22T03:55:21.386Z,9.670000076
2022-09-22T03:57:17.146Z,9.699999809
2022-09-22T03:58:17.078Z,9.68999958
2022-09-22T03:59:16.290Z,9.68999958
2022-09-22T04:00:10.596Z,9.670000076
2022-09-22T04:02:15.255Z,9.68999958
2022-09-22T04:03:18.021Z,9.68999958
2022-09-22T04:04:13.362Z,9.68999958
2022-09-22T04:05:16.179Z,9.68999958
2022-09-22T04:06:08.179Z,9.729999542
2022-09-22T04:07:13.276Z,9.710000038
2022-09-22T04:08:05.763Z,9.68999958
2022-09-22T04:09:02.619Z,9.68999958
2022-09-22T04:10:06.611Z,9.670000076
2022-09-22T04:12:03.013Z,9.659999847
2022-09-22T04:12:55.982Z,9.670000076
2022-09-22T04:14:40.353Z,9.739999771
2022-09-22T04:15:22.049Z,9.81000042
2022-09-22T04:16:19.616Z,9.859999657
2022-09-22T04:17:21.571Z,9.840000153
2022-09-22T04:18:17.136Z,9.81000042
2022-09-22T04:19:16.179Z,9.789999962
2022-09-22T04:20:10.702Z,9.760000229
2022-09-22T04:22:05.686Z,9.739999771
2022-09-22T04:23:11.794Z,9.710000038
2022-09-22T04:24:07.030Z,9.680000305
2022-09-22T04:25:07.469Z,9.659999847
2022-09-22T04:27:18.974Z,9.659999847
2022-09-22T04:27:19.671Z,9.659999847
2022-09-22T04:27:19.897Z,9.659999847
2022-09-22T04:28:05.407Z,9.670000076
2022-09-22T04:28:58.551Z,9.729999542
2022-09-22T04:29:58.872Z,9.739999771
2022-09-22T04:30:54.393Z,9.770000458
2022-09-22T04:31:55.289Z,9.729999542
2022-09-22T04:32:50.545Z,9.699999809
2022-09-22T04:33:52.321Z,9.68999958
2022-09-22T04:34:44.556Z,9.680000305
2022-09-22T04:35:43.895Z,9.699999809
2022-09-22T04:37:39.677Z,9.659999847
2022-09-22T04:38:42.536Z,9.649999619
2022-09-22T04:39:34.976Z,9.640000343
2022-09-22T04:40:43.687Z,9.659999847
2022-09-22T04:42:39.256Z,9.649999619
2022-09-22T04:43:37.779Z,9.630000114
2022-09-22T04:44:41.859Z,9.619999886
2022-09-22T04:45:39.890Z,9.630000114
2022-09-22T04:46:40.543Z,9.640000343
2022-09-22T04:47:42.477Z,9.619999886
2022-09-22T04:48:40.963Z,9.590000153
2022-09-22T04:49:44.249Z,9.569999695
2022-09-22T04:51:49.969Z,9.590000153
2022-09-22T04:52:46.639Z,9.579999924
2022-09-22T04:54:32.175Z,9.640000343
2022-09-22T04:55:33.491Z,9.729999542
2022-09-22T04:56:34.794Z,9.760000229
2022-09-22T04:57:35.288Z,9.729999542
2022-09-22T04:58:37.327Z,9.68999958
2022-09-22T05:00:23.498Z,9.739999771
2022-09-22T05:01:06.632Z,9.800000191
2022-09-22T05:02:06.249Z,9.800000191
2022-09-22T05:03:10.034Z,9.779999733
2022-09-22T05:04:10.393Z,9.739999771
2022-09-22T05:05:07.701Z,9.710000038
2022-09-22T05:06:08.667Z,9.699999809
2022-09-22T05:07:13.757Z,9.659999847
2022-09-22T05:08:20.279Z,9.609999657
2022-09-22T05:09:26.355Z,9.600000381
2022-09-22T05:10:24.274Z,9.619999886
2022-09-22T05:12:27.389Z,9.630000114
2022-09-22T05:13:28.352Z,9.609999657
2022-09-22T05:14:26.522Z,9.609999657
2022-09-22T05:15:28.336Z,9.600000381
2022-09-22T05:17:31.135Z,9.590000153
2022-09-22T05:18:30.943Z,9.579999924
2022-09-22T05:19:33.941Z,9.56000042
2022-09-22T05:20:30.333Z,9.550000191
2022-09-22T05:22:36.333Z,9.529999733
2022-09-22T05:22:39.968Z,9.529999733
2022-09-22T05:23:34.026Z,9.529999733
2022-09-22T05:24:36.357Z,9.539999962
2022-09-22T05:25:40.980Z,9.56000042
2022-09-22T05:26:37.581Z,9.550000191
2022-09-22T05:27:41.776Z,9.529999733
2022-09-22T05:28:35.471Z,9.520000458
2022-09-22T05:29:35.161Z,9.510000229
2022-09-22T05:30:36.920Z,9.5
2022-09-22T05:31:38.397Z,9.489999771
2022-09-22T05:32:34.800Z,9.470000267
2022-09-22T05:33:42.314Z,9.449999809
2022-09-22T05:34:39.041Z,9.460000038
2022-09-22T05:35:40.735Z,9.470000267
2022-09-22T05:37:37.998Z,9.43999958
2022-09-22T05:38:40.915Z,9.43999958
2022-09-22T05:39:38.027Z,9.43999958
2022-09-22T05:40:44.689Z,9.460000038
2022-09-22T05:42:42.099Z,9.470000267
2022-09-22T05:43:45.380Z,9.470000267
2022-09-22T05:44:40.202Z,9.470000267
2022-09-22T05:46:16.639Z,9.569999695
2022-09-22T05:47:14.897Z,9.640000343
2022-09-22T05:48:15.364Z,9.649999619
2022-09-22T05:49:16.348Z,9.630000114
2022-09-22T05:52:30.182Z,9.819999695
2022-09-22T05:54:06.249Z,9.949999809
2022-09-22T05:55:06.616Z,10.02000046
2022-09-22T05:56:04.859Z,10.03999996
2022-09-22T05:57:06.068Z,9.989999771
2022-09-22T05:58:07.607Z,9.920000076
2022-09-22T05:59:11.148Z,9.869999886
2022-09-22T06:02:31.361Z,9.989999771
2022-09-22T06:03:25.711Z,10.05000019
2022-09-22T06:04:28.405Z,10.05000019
2022-09-22T06:05:29.343Z,10
2022-09-22T06:06:30.260Z,9.989999771
2022-09-22T06:08:12.877Z,10.02000046
2022-09-22T06:09:09.469Z,10.05000019
2022-09-22T06:10:12.654Z,10.02000046
2022-09-22T06:11:09.115Z,10
2022-09-22T06:12:47.253Z,9.989999771
2022-09-22T06:14:23.090Z,10.09000015
2022-09-22T06:17:37.697Z,10.31999969
2022-09-22T06:19:17.792Z,10.39000034
2022-09-22T06:22:28.052Z,10.52999973
2022-09-22T06:24:08.192Z,10.60999966
2022-09-22T06:25:03.603Z,10.60999966
2022-09-22T06:26:05.238Z,10.56999969
2022-09-22T06:27:43.912Z,10.52000046
2022-09-22T06:29:21.342Z,10.56000042
2022-09-22T06:32:36.288Z,10.68999958
2022-09-22T06:34:11.982Z,10.76000023
2022-09-22T06:37:31.309Z,10.85999966
2022-09-22T06:39:11.579Z,10.89999962
2022-09-22T06:40:15.357Z,10.88000011
2022-09-22T06:40:17.633Z,10.88000011
2022-09-22T06:42:53.694Z,10.85000038
2022-09-22T06:43:54.830Z,10.81000042
2022-09-22T06:45:40.544Z,10.73999977
2022-09-22T06:47:26.904Z,10.69999981
2022-09-22T06:48:24.653Z,10.65999985
2022-09-22T06:49:24.948Z,10.61999989
2022-09-22T06:50:20.928Z,10.56999969
2022-09-22T06:51:21.759Z,10.56000042
2022-09-22T06:52:18.167Z,10.56000042
2022-09-22T06:53:24.335Z,10.52999973
2022-09-22T06:54:17.820Z,10.52000046
2022-09-22T06:55:20.087Z,10.5
2022-09-22T06:57:10.497Z,10.5
2022-09-22T06:58:10.703Z,10.47999954
2022-09-22T06:59:10.329Z,10.43000031
2022-09-22T07:00:07.246Z,10.44999981
2022-09-22T07:02:04.161Z,10.47000027
2022-09-22T07:03:00.461Z,10.47999954
2022-09-22T07:04:02.982Z,10.47999954
2022-09-22T07:04:55.722Z,10.47999954
2022-09-22T07:05:55.901Z,10.5
2022-09-22T07:06:52.150Z,10.48999977
2022-09-22T07:07:49.779Z,10.48999977
2022-09-22T07:08:52.708Z,10.47999954
2022-09-22T07:09:48.572Z,10.47000027
2022-09-22T07:11:44.723Z,10.47999954
2022-09-22T07:12:46.906Z,10.48999977
2022-09-22T07:14:19.520Z,10.67000008
2022-09-22T07:16:42.285Z,11.26000023
2022-09-22T07:17:21.084Z,11.34000015
2022-09-22T07:18:18.229Z,11.32999992
2022-09-22T07:19:16.880Z,11.28999996
2022-09-22T07:20:11.522Z,11.23999977
2022-09-22T07:21:10.359Z,11.18000031
2022-09-22T07:22:04.521Z,11.13000011
2022-09-22T07:23:04.757Z,11.07999992
2022-09-22T07:23:58.450Z,11.06999969
2022-09-22T07:24:57.086Z,11.02999973
2022-09-22T07:26:48.346Z,11.01000023
2022-09-22T07:27:46.672Z,10.98999977
2022-09-22T07:28:40.839Z,10.98999977
2022-09-22T07:29:36.692Z,10.97000027
2022-09-22T07:30:34.478Z,10.96000004
2022-09-22T07:32:25.878Z,10.98999977
2022-09-22T07:33:23.827Z,10.97999954
2022-09-22T07:34:17.991Z,11
2022-09-22T07:35:19.128Z,10.97999954
2022-09-22T07:37:08.882Z,11.05000019
2022-09-22T07:38:04.931Z,11.06000042
2022-09-22T07:39:03.321Z,11.06000042
2022-09-22T07:39:57.203Z,11.07999992
2022-09-22T07:40:58.344Z,11.09000015
2022-09-22T07:41:50.581Z,11.11999989
2022-09-22T07:42:51.163Z,11.14000034
2022-09-22T07:43:47.730Z,11.15999985
2022-09-22T07:44:44.488Z,11.22000027
2022-09-22T07:45:36.247Z,11.27999973
2022-09-22T07:46:34.864Z,11.31000042
2022-09-22T07:47:29.333Z,11.32999992
2022-09-22T07:48:27.618Z,11.32999992
2022-09-22T07:49:22.665Z,11.34000015
2022-09-22T07:50:18.296Z,11.35999966
2022-09-22T07:52:53.986Z,11.42000008
2022-09-22T07:53:33.674Z,11.47000027
2022-09-22T07:54:31.600Z,11.52999973
2022-09-22T07:55:28.778Z,11.55000019
2022-09-22T07:56:28.655Z,11.56999969
2022-09-22T07:57:23.820Z,11.59000015
2022-09-22T07:58:26.062Z,11.59000015
2022-09-22T07:59:18.662Z,11.60000038
2022-09-22T08:00:18.597Z,11.65999985
2022-09-22T08:02:13.839Z,11.72000027
2022-09-22T08:03:09.173Z,11.76000023
2022-09-22T08:04:09.288Z,11.81000042
2022-09-22T08:05:05.517Z,11.86999989
2022-09-22T08:06:06.394Z,11.96000004
2022-09-22T08:07:02.610Z,12.05000019
2022-09-22T08:08:03.408Z,12.13000011
2022-09-22T08:08:59.239Z,12.19999981
2022-09-22T08:10:00.167Z,12.27000046
2022-09-22T08:10:56.565Z,12.30000019
2022-09-22T08:11:56.763Z,12.34000015
2022-09-22T08:12:54.705Z,12.39000034
2022-09-22T08:13:54.711Z,12.42000008
2022-09-22T08:14:51.001Z,12.47000027
2022-09-22T08:16:47.538Z,12.56999969
2022-09-22T08:17:47.936Z,12.61999989
2022-09-22T08:18:49.999Z,12.69999981
2022-09-22T08:19:44.439Z,12.82999992
2022-09-22T08:20:46.243Z,12.90999985
2022-09-22T08:21:48.885Z,13.01000023
2022-09-22T08:21:49.673Z,13.01000023
2022-09-22T08:22:46.012Z,13.11999989
2022-09-22T08:23:43.293Z,13.22999954
2022-09-22T08:24:48.151Z,13.31000042
2022-09-22T08:25:42.935Z,13.36999989
2022-09-22T08:26:48.311Z,13.47999954
2022-09-22T08:27:42.969Z,13.56999969
2022-09-22T08:28:47.531Z,13.64000034
2022-09-22T08:29:42.910Z,13.71000004
2022-09-22T08:30:47.068Z,13.75
2022-09-22T08:32:25.237Z,13.86999989
2022-09-22T08:33:05.910Z,13.96000004
2022-09-22T08:34:04.661Z,14.03999996
2022-09-22T08:35:05.513Z,14.09000015
2022-09-22T08:36:01.453Z,14.09000015
2022-09-22T08:37:02.482Z,14.15999985
2022-09-22T08:37:58.795Z,14.18999958
2022-09-22T08:38:57.391Z,14.22999954
2022-09-22T08:39:56.314Z,14.25
2022-09-22T08:40:56.294Z,14.26000023
2022-09-22T08:41:52.695Z,14.32999992
2022-09-22T08:42:53.415Z,14.36999989
2022-09-22T08:43:49.749Z,14.43000031
2022-09-22T08:44:50.792Z,14.47000027
2022-09-22T08:45:47.061Z,14.5
2022-09-22T08:46:48.123Z,14.55000019
2022-09-22T08:47:44.240Z,14.59000015
2022-09-22T08:48:47.612Z,14.64000034
2022-09-22T08:49:41.858Z,14.65999985
2022-09-22T08:50:42.234Z,14.67000008
2022-09-22T08:51:38.372Z,14.71000004
2022-09-22T08:52:39.487Z,14.76000023
2022-09-22T08:53:35.825Z,14.80000019
2022-09-22T08:54:39.652Z,14.85999966
2022-09-22T08:55:33.477Z,14.89999962
2022-09-22T08:56:34.907Z,14.96000004
2022-09-22T08:57:31.486Z,15.02000046
2022-09-22T08:58:33.115Z,15.10999966
2022-09-22T08:59:29.781Z,15.17000008
2022-09-22T09:00:33.983Z,15.22000027
2022-09-22T09:02:30.066Z,15.32999992
2022-09-22T09:03:27.288Z,15.39000034
2022-09-22T09:04:28.727Z,15.44999981
2022-09-22T09:06:07.739Z,15.51000023
2022-09-22T09:06:49.110Z,15.60999966
2022-09-22T09:07:48.617Z,15.67000008
2022-09-22T09:08:50.665Z,15.71000004
2022-09-22T09:09:48.019Z,15.73999977
2022-09-22T09:10:49.621Z,15.76000023
2022-09-22T09:11:47.053Z,15.80000019
2022-09-22T09:12:49.212Z,15.85000038
2022-09-22T09:13:46.357Z,15.89999962
2022-09-22T09:14:48.403Z,15.93000031
2022-09-22T09:15:46.376Z,15.93999958
2022-09-22T09:16:47.580Z,16
2022-09-22T09:17:45.687Z,16.04999924
2022-09-22T09:18:47.022Z,16.11000061
2022-09-22T09:19:44.246Z,16.14999962
2022-09-22T09:20:48.669Z,16.13999939
2022-09-22T09:21:43.867Z,16.17000008
2022-09-22T09:22:48.438Z,16.21999931
2022-09-22T09:25:43.513Z,16.37999916
2022-09-22T09:26:45.634Z,16.44000053
2022-09-22T09:27:48.250Z,16.48999977
2022-09-22T09:28:43.469Z,16.52000046
2022-09-22T09:29:45.547Z,16.55999947
2022-09-22T09:30:43.027Z,16.54999924
2022-09-22T09:32:43.591Z,16.62999916
2022-09-22T09:33:45.655Z,16.68000031
2022-09-22T09:34:44.784Z,16.71999931
2022-09-22T09:35:48.668Z,16.75
2022-09-22T09:36:46.382Z,16.80999947
2022-09-22T09:37:45.374Z,16.84000015
2022-09-22T09:38:47.358Z,16.90999985
2022-09-22T09:39:46.520Z,16.89999962
2022-09-22T09:40:47.999Z,16.92000008
2022-09-22T09:41:47.014Z,16.96999931
2022-09-22T09:42:48.903Z,17.04000092
2022-09-22T09:43:47.838Z,17.11000061
2022-09-22T09:44:50.247Z,17.17000008
2022-09-22T09:45:48.913Z,17.17000008
2022-09-22T09:47:49.984Z,17.27000046
2022-09-22T09:48:51.734Z,17.29999924
2022-09-22T09:49:52.749Z,17.37000084
2022-09-22T09:50:52.118Z,17.39999962
2022-09-22T09:51:57.573Z,17.42000008
2022-09-22T09:53:41.030Z,17.51000023
2022-09-22T09:54:19.314Z,17.59000015
2022-09-22T09:55:26.779Z,17.61000061
2022-09-22T09:55:27.025Z,17.61000061
2022-09-22T09:57:17.930Z,17.62999916
2022-09-22T09:58:19.484Z,17.62999916
2022-09-22T09:59:15.990Z,17.61000061
2022-09-22T10:00:17.393Z,17.60000038
2022-09-22T10:02:15.122Z,17.53000069
2022-09-22T10:03:11.531Z,17.55999947
2022-09-22T10:04:13.035Z,17.53000069
2022-09-22T10:05:09.498Z,17.52000046
2022-09-22T10:06:13.509Z,17.47999954
2022-09-22T10:07:07.417Z,17.48999977
2022-09-22T10:08:11.443Z,17.48999977
2022-09-22T10:09:05.801Z,17.5
2022-09-22T10:10:06.604Z,17.45000076
2022-09-22T10:12:04.265Z,17.46999931
2022-09-22T10:13:04.240Z,17.52000046
2022-09-22T10:14:00.589Z,17.57999992
2022-09-22T10:15:01.735Z,17.57999992
2022-09-22T10:17:01.536Z,17.55999947
2022-09-22T10:17:55.194Z,17.55999947
2022-09-22T10:18:58.790Z,17.53000069
2022-09-22T10:19:52.887Z,17.51000023
2022-09-22T10:20:56.475Z,17.5
2022-09-22T10:21:50.096Z,17.52000046
2022-09-22T10:22:53.592Z,17.54999924
2022-09-22T10:23:48.477Z,17.53000069
2022-09-22T10:24:48.184Z,17.55999947
2022-09-22T10:25:44.121Z,17.46999931
2022-09-22T10:26:47.573Z,17.48999977
2022-09-22T10:27:41.539Z,17.5
2022-09-22T10:28:44.662Z,17.45000076
2022-09-22T10:29:37.915Z,17.45999908
2022-09-22T10:30:39.012Z,17.45000076
2022-09-22T10:33:13.642Z,17.44000053
2022-09-22T10:33:54.358Z,17.45999908
2022-09-22T10:34:53.757Z,17.46999931
2022-09-22T10:35:54.661Z,17.43000031
2022-09-22T10:36:50.990Z,17.39999962
2022-09-22T10:37:51.521Z,17.39999962
2022-09-22T10:38:47.733Z,17.36000061
2022-09-22T10:39:48.227Z,17.34000015
2022-09-22T10:40:44.571Z,17.29999924
2022-09-22T10:41:44.818Z,17.27000046
2022-09-22T10:42:40.814Z,17.27000046
2022-09-22T10:43:41.528Z,17.27000046
2022-09-22T10:44:40.122Z,17.26000023
2022-09-22T10:45:38.543Z,17.25
2022-09-22T10:46:34.911Z,17.25
2022-09-22T10:47:35.312Z,17.25
2022-09-22T10:48:31.670Z,17.25
2022-09-22T10:49:31.983Z,17.23999977
2022-09-22T10:50:28.433Z,17.25
2022-09-22T10:51:26.021Z,17.22999954
2022-09-22T10:52:26.644Z,17.21999931
2022-09-22T10:53:22.613Z,17.21999931
2022-09-22T10:54:25.514Z,17.19000053
2022-09-22T10:55:18.903Z,17.19000053
2022-09-22T10:56:21.877Z,17.18000031
2022-09-22T10:57:15.195Z,17.18000031
2022-09-22T10:58:13.319Z,17.18000031
2022-09-22T10:59:13.878Z,17.18000031
2022-09-22T11:00:09.529Z,17.19000053
2022-09-22T11:02:07.019Z,17.17000008
2022-09-22T11:03:09.316Z,17.17000008
2022-09-22T11:04:02.528Z,17.18000031
2022-09-22T11:05:04.072Z,17.19000053
2022-09-22T11:06:58.077Z,17.15999985
2022-09-22T11:08:01.423Z,17.13999939
2022-09-22T11:08:54.516Z,17.14999962
2022-09-22T11:10:35.086Z,17.18000031
2022-09-22T11:12:12.141Z,17.29999924
2022-09-22T11:12:52.074Z,17.32999992
2022-09-22T11:13:49.515Z,17.34000015
2022-09-22T11:14:49.235Z,17.32999992
2022-09-22T11:15:44.467Z,17.29000092
2022-09-22T11:16:43.874Z,17.27000046
2022-09-22T11:17:39.085Z,17.25
2022-09-22T11:18:39.787Z,17.21999931
2022-09-22T11:19:33.300Z,17.18000031
2022-09-22T11:20:32.644Z,17.14999962
2022-09-22T11:21:27.230Z,17.12000084
2022-09-22T11:22:26.784Z,17.10000038
2022-09-22T11:23:21.481Z,17.07999992
2022-09-22T11:24:21.167Z,17.05999947
2022-09-22T11:25:16.323Z,17.03000069
2022-09-22T11:27:10.331Z,17.01000023
2022-09-22T11:28:09.367Z,16.98999977
2022-09-22T11:29:04.600Z,16.97999954
2022-09-22T11:30:01.553Z,16.95999908
2022-09-22T11:31:55.375Z,16.92000008
2022-09-22T11:32:55.019Z,16.89999962
2022-09-22T11:33:49.473Z,16.90999985
2022-09-22T11:34:49.740Z,16.89999962
2022-09-22T11:35:44.231Z,16.87000084
2022-09-22T11:36:51.454Z,16.87999916
2022-09-22T11:37:44.794Z,16.87999916
2022-09-22T11:38:37.149Z,16.88999939
2022-09-22T11:39:38.993Z,16.89999962
2022-09-22T11:40:32.869Z,16.88999939
2022-09-22T11:41:36.340Z,16.89999962
2022-09-22T11:42:28.889Z,16.88999939
2022-09-22T11:43:27.879Z,16.87999916
2022-09-22T11:44:22.358Z,16.86000061
2022-09-22T11:45:21.677Z,16.84000015
2022-09-22T11:47:18.209Z,16.79999924
2022-09-22T11:48:10.369Z,16.79000092
2022-09-22T11:49:48.737Z,16.81999969
2022-09-22T11:50:29.116Z,16.85000038
2022-09-22T11:51:30.207Z,16.85000038
2022-09-22T11:52:26.392Z,16.85000038
2022-09-22T11:53:26.786Z,16.81999969
2022-09-22T11:54:25.913Z,16.80999947
2022-09-22T11:55:21.743Z,16.85000038
2022-09-22T11:56:22.641Z,16.82999992
2022-09-22T11:57:18.957Z,16.82999992
2022-09-22T11:58:19.253Z,16.81999969
2022-09-22T11:59:15.491Z,16.79999924
2022-09-22T12:00:15.395Z,16.79000092
2022-09-22T12:01:13.385Z,16.78000069
2022-09-22T12:02:11.573Z,16.79000092
2022-09-22T12:03:07.248Z,16.79999924
2022-09-22T12:04:07.835Z,16.79000092
2022-09-22T12:05:04.071Z,16.79999924
2022-09-22T12:06:06.838Z,16.78000069
2022-09-22T12:07:00.186Z,16.79999924
2022-09-22T12:07:58.529Z,16.79999924
2022-09-22T12:08:59.118Z,16.80999947
2022-09-22T12:09:55.398Z,16.80999947
2022-09-22T12:10:58.305Z,16.80999947